Search for airport 
image banner adimage banner adimage banner ad
image banner ad

4PS3 - Paraport

Located in Warren, United States

ICAO - 4PS3, IATA -

Data provided by Airmate  

General information

Coordinates: N41°47'18" W79°31'7"
Elevation is 1400 feet MSL.
 
View others Airports in Pennsylvania

Operational data

Special qualification required
Current time UTC:
Current local time:
Weather at : KJHW - Chautauqua County/Jamestown ( 46 km )
METAR: KJHW 071312Z AUTO 03010KT 10SM BKN007 BKN019 OVC055 04/02 A2991 RMK AO2 CIG 005V011
TAF: KJHW 071120Z 0712/0812 VRB05KT P6SM -SHRA SCT008 OVC015 FM071600 03005KT 3SM RA BR OVC007 FM071900 34008KT 6SM -SHRA BR OVC007 FM072200 33006KT P6SM BKN015 FM080300 VRB03KT 3SM BR SCT008 FM080700 VRB03KT 5SM BR VCSH BKN005
View NOTAMs / SUP AIP / TFR affecting this airport [VIEW]
Communications frequencies: [VIEW]

Runways:

RWY identifierQFULength (ft)Width (ft)SurfaceLDA (ft)
09U1400400GRASS
27U1400400GRASS

Airport contact information

Address: Warren United States

Satellite view of 4PS3